Time;durP1;ratioP1;P1;durP2;ratioP2;P2;SDS_P1;SDS_P2;PMS_P1;PMS_P2;Temp;Humidity;BMP_temperature;BMP_pressure;BME280_temperature;BME280_humidity;BME280_pressure;Samples;Min_cycle;Max_cycle;Signal;HPM_P1;HPM_P2
2022/12/09 00:00:32;;;;;;;1.08;1.00;;;21.60;39.90;;;;;;4993223;28;20943;-60
2022/12/09 00:02:58;;;;;;;1.95;1.17;;;21.60;39.80;;;;;;4996229;28;20081;-61
2022/12/09 00:05:23;;;;;;;1.52;1.20;;;21.60;39.90;;;;;;4997187;28;20577;-61
2022/12/09 00:07:49;;;;;;;1.52;1.42;;;21.60;39.90;;;;;;4991678;28;20109;-59
2022/12/09 00:10:15;;;;;;;1.65;1.20;;;21.60;39.90;;;;;;4992117;28;20041;-61
2022/12/09 00:12:41;;;;;;;2.92;0.98;;;21.50;39.80;;;;;;5004488;28;20030;-60
2022/12/09 00:15:07;;;;;;;1.52;1.25;;;21.50;39.80;;;;;;4995752;28;20053;-60
2022/12/09 00:17:32;;;;;;;2.00;0.90;;;21.50;39.80;;;;;;4996598;28;20038;-60
2022/12/09 00:19:58;;;;;;;0.90;0.90;;;21.50;39.80;;;;;;4993960;28;20038;-60
2022/12/09 00:22:26;;;;;;;1.40;1.00;;;21.50;39.80;;;;;;4993951;28;20532;-60
2022/12/09 00:24:52;;;;;;;1.70;1.20;;;21.50;39.80;;;;;;4995587;28;20049;-60
2022/12/09 00:27:17;;;;;;;1.58;1.00;;;21.40;39.70;;;;;;4994935;28;20493;-60
2022/12/09 00:29:43;;;;;;;1.20;1.10;;;21.40;39.80;;;;;;5000689;28;20037;-58
2022/12/09 00:32:09;;;;;;;1.00;0.90;;;21.40;39.70;;;;;;4995209;28;20538;-60
2022/12/09 00:34:35;;;;;;;1.65;1.23;;;21.40;39.80;;;;;;4994742;28;20065;-60
2022/12/09 00:37:00;;;;;;;1.30;1.20;;;21.40;39.70;;;;;;4993161;28;20221;-60
2022/12/09 00:39:26;;;;;;;1.42;1.30;;;21.40;39.80;;;;;;4993336;28;20034;-60
2022/12/09 00:41:52;;;;;;;1.17;0.95;;;21.40;39.80;;;;;;4991396;28;20042;-60
2022/12/09 00:44:18;;;;;;;1.80;1.35;;;21.40;39.80;;;;;;4993486;28;20053;-60
2022/12/09 00:46:43;;;;;;;1.33;1.23;;;21.30;39.70;;;;;;4994269;28;20074;-61
2022/12/09 00:49:10;;;;;;;1.33;1.08;;;21.30;39.80;;;;;;4993318;28;20481;-60
2022/12/09 00:51:36;;;;;;;1.85;1.40;;;21.30;39.80;;;;;;4996715;28;20839;-60
2022/12/09 00:54:01;;;;;;;1.70;1.30;;;21.20;39.70;;;;;;4994823;28;20046;-60
2022/12/09 00:56:28;;;;;;;1.27;1.13;;;21.20;39.70;;;;;;4994214;28;20062;-60
2022/12/09 00:58:56;;;;;;;1.50;1.23;;;21.20;40.40;;;;;;4996391;28;20536;-61
2022/12/09 01:01:22;;;;;;;1.98;1.30;;;21.20;39.70;;;;;;4996682;28;20045;-60
2022/12/09 01:03:48;;;;;;;1.30;1.20;;;21.20;39.70;;;;;;4994913;28;20509;-60
2022/12/09 01:06:17;;;;;;;1.27;1.17;;;21.10;39.60;;;;;;4985444;28;20045;-60
2022/12/09 01:08:43;;;;;;;0.90;0.90;;;21.20;39.80;;;;;;4993403;28;20073;-61
2022/12/09 01:11:15;;;;;;;1.40;1.20;;;21.10;39.70;;;;;;4995463;28;20116;-60
2022/12/09 01:13:41;;;;;;;1.13;1.00;;;21.10;39.70;;;;;;4995557;28;20052;-60
2022/12/09 01:16:23;;;;;;;0.93;0.80;;;21.10;39.70;;;;;;4993983;28;20380;-59
2022/12/09 01:18:51;;;;;;;1.45;1.08;;;21.10;39.60;;;;;;5002246;28;20040;-60
2022/12/09 01:21:17;;;;;;;1.45;1.25;;;21.10;39.70;;;;;;4984427;28;20057;-60
2022/12/09 01:23:43;;;;;;;1.35;1.10;;;21.00;39.60;;;;;;4993745;28;20455;-61
2022/12/09 01:26:09;;;;;;;1.00;0.90;;;21.00;39.70;;;;;;4993539;28;20095;-61
2022/12/09 01:28:37;;;;;;;1.08;0.98;;;21.00;39.70;;;;;;4991820;28;20544;-60
2022/12/09 01:31:15;;;;;;;1.15;0.90;;;21.00;39.70;;;;;;4993388;28;20038;-59
2022/12/09 01:33:42;;;;;;;1.30;1.20;;;20.90;39.60;;;;;;4992694;28;20050;-61
2022/12/09 01:36:20;;;;;;;1.30;1.20;;;20.90;39.60;;;;;;4977908;28;20111;-61
2022/12/09 01:38:47;;;;;;;1.77;1.45;;;20.90;39.60;;;;;;5008426;28;20042;-59
2022/12/09 01:41:14;;;;;;;1.20;1.10;;;20.90;39.60;;;;;;4994418;28;20041;-60
2022/12/09 01:43:40;;;;;;;2.13;1.20;;;20.80;39.60;;;;;;4992637;28;20069;-60
2022/12/09 01:46:06;;;;;;;1.02;1.00;;;20.80;39.60;;;;;;4995995;28;20041;-62
2022/12/09 01:48:40;;;;;;;1.10;1.00;;;20.80;39.60;;;;;;4992858;28;20041;-60
2022/12/09 01:51:18;;;;;;;1.13;1.00;;;20.80;39.60;;;;;;4992586;28;20477;-60
2022/12/09 01:53:48;;;;;;;0.95;0.93;;;20.80;39.60;;;;;;4993877;28;20038;-62
2022/12/09 01:56:34;;;;;;;1.03;1.00;;;20.70;39.60;;;;;;4994020;28;20551;-60
2022/12/09 01:59:11;;;;;;;1.38;1.20;;;20.80;39.60;;;;;;4977208;28;20104;-62
2022/12/09 02:01:38;;;;;;;1.00;1.00;;;20.70;39.70;;;;;;4995924;28;20527;-59
2022/12/09 02:04:04;;;;;;;1.23;1.10;;;20.70;39.70;;;;;;4990149;28;20046;-60
2022/12/09 02:06:31;;;;;;;1.20;1.10;;;20.70;39.70;;;;;;4991685;28;20196;-60
2022/12/09 02:08:57;;;;;;;1.40;1.30;;;20.70;39.60;;;;;;4990796;28;20486;-60
2022/12/09 02:11:41;;;;;;;1.80;1.10;;;20.70;39.70;;;;;;4994369;28;20548;-60
2022/12/09 02:14:34;;;;;;;1.27;1.13;;;20.70;39.50;;;;;;4985853;28;20108;-60
2022/12/09 02:17:24;;;;;;;1.52;1.00;;;20.70;39.60;;;;;;4993860;28;20046;-61
2022/12/09 02:20:10;;;;;;;1.57;1.10;;;20.60;39.50;;;;;;4999980;28;20060;-61
2022/12/09 02:22:42;;;;;;;1.20;1.10;;;20.60;39.60;;;;;;4990853;28;20501;-60
2022/12/09 02:25:32;;;;;;;0.95;0.93;;;20.60;39.70;;;;;;4991448;28;20038;-60
2022/12/09 02:28:09;;;;;;;1.02;0.93;;;20.50;39.40;;;;;;4988903;28;20042;-60
2022/12/09 02:31:27;;;;;;;1.20;1.10;;;20.50;39.60;;;;;;4992229;28;20075;-58
2022/12/09 02:34:16;;;;;;;1.15;1.05;;;20.50;39.50;;;;;;4980548;28;20211;-58
2022/12/09 02:37:03;;;;;;;1.13;1.10;;;20.50;39.50;;;;;;4993520;28;20053;-60
2022/12/09 02:39:36;;;;;;;1.20;1.10;;;20.50;39.60;;;;;;4991864;28;20039;-60
2022/12/09 02:42:05;;;;;;;1.33;1.10;;;20.40;39.60;;;;;;4990777;28;20060;-60
2022/12/09 02:44:32;;;;;;;1.17;1.08;;;20.40;39.60;;;;;;4991646;28;20057;-59
2022/12/09 02:46:58;;;;;;;1.67;0.85;;;20.40;39.50;;;;;;4992384;28;20054;-60
2022/12/09 02:49:27;;;;;;;1.13;1.10;;;20.40;39.60;;;;;;4992127;28;20034;-61
2022/12/09 02:51:53;;;;;;;1.30;1.13;;;20.40;39.50;;;;;;4993229;28;20042;-60
2022/12/09 02:54:20;;;;;;;1.17;1.02;;;20.40;39.50;;;;;;4991999;28;20038;-60
2022/12/09 02:57:10;;;;;;;1.00;1.00;;;20.40;39.50;;;;;;4992013;28;20061;-60
2022/12/09 02:59:36;;;;;;;1.35;1.25;;;20.40;39.40;;;;;;4991906;28;20042;-62
2022/12/09 03:02:20;;;;;;;1.27;1.17;;;20.30;39.50;;;;;;4990566;28;20046;-60
2022/12/09 03:04:58;;;;;;;1.08;0.98;;;20.30;39.50;;;;;;4989265;28;20053;-59
2022/12/09 03:07:36;;;;;;;2.00;1.27;;;20.30;39.50;;;;;;4993926;28;20057;-60
2022/12/09 03:10:21;;;;;;;1.33;1.23;;;20.30;39.50;;;;;;4992503;28;20647;-60
2022/12/09 03:12:55;;;;;;;1.10;1.00;;;20.30;39.50;;;;;;4990208;28;20042;-60
2022/12/09 03:15:24;;;;;;;1.27;1.17;;;20.30;40.20;;;;;;4991727;28;20441;-60
2022/12/09 03:17:52;;;;;;;1.13;1.02;;;20.30;39.50;;;;;;4992761;28;20159;-59
2022/12/09 03:20:24;;;;;;;1.33;1.23;;;20.30;39.50;;;;;;4990968;28;20046;-60
2022/12/09 03:22:54;;;;;;;1.98;1.20;;;20.30;39.50;;;;;;4992254;28;20038;-60
2022/12/09 03:25:26;;;;;;;1.20;1.10;;;20.20;39.40;;;;;;4992202;28;20042;-60
2022/12/09 03:28:03;;;;;;;1.30;1.20;;;20.20;39.50;;;;;;4992674;28;20041;-60
2022/12/09 03:30:36;;;;;;;1.40;1.30;;;20.20;39.40;;;;;;4991367;28;20109;-60
2022/12/09 03:33:03;;;;;;;1.48;1.10;;;20.20;40.20;;;;;;4989571;28;20042;-60
2022/12/09 03:35:31;;;;;;;1.42;1.10;;;20.20;39.50;;;;;;4991163;28;20445;-60
2022/12/09 03:38:00;;;;;;;1.30;1.13;;;20.20;39.40;;;;;;4988023;28;20057;-59
2022/12/09 03:40:28;;;;;;;1.55;1.20;;;20.20;39.50;;;;;;4990914;28;20042;-61
2022/12/09 03:43:11;;;;;;;1.30;1.20;;;20.10;39.50;;;;;;4991302;28;20053;-60
2022/12/09 03:45:38;;;;;;;1.30;1.20;;;20.10;39.40;;;;;;4991825;28;20494;-60
2022/12/09 03:48:04;;;;;;;1.10;1.00;;;20.10;39.50;;;;;;4988128;28;20048;-60
2022/12/09 03:50:39;;;;;;;1.25;1.15;;;20.10;39.50;;;;;;4990344;28;20041;-59
2022/12/09 03:53:11;;;;;;;1.13;1.05;;;20.10;39.50;;;;;;4989625;28;20045;-59
2022/12/09 03:56:07;;;;;;;1.30;1.20;;;20.10;39.50;;;;;;4976610;28;20129;-60
2022/12/09 03:58:36;;;;;;;1.58;1.20;;;20.10;39.50;;;;;;4999638;28;20042;-61
2022/12/09 04:01:03;;;;;;;1.48;1.20;;;20.00;39.60;;;;;;4991123;28;20042;-60
2022/12/09 04:03:28;;;;;;;1.13;1.02;;;20.00;39.50;;;;;;4989862;28;20113;-60
2022/12/09 04:05:54;;;;;;;1.42;1.33;;;20.00;39.60;;;;;;4991027;28;20149;-60
2022/12/09 04:08:19;;;;;;;1.45;1.23;;;20.00;39.60;;;;;;4988127;28;20077;-60
2022/12/09 04:10:45;;;;;;;1.45;1.35;;;20.00;39.60;;;;;;4991342;28;20789;-60
2022/12/09 04:13:11;;;;;;;1.20;1.10;;;20.00;39.60;;;;;;4990637;28;20428;-61
2022/12/09 04:15:36;;;;;;;1.30;1.20;;;20.00;39.60;;;;;;4981622;28;20050;-59
2022/12/09 04:18:02;;;;;;;1.38;1.20;;;19.90;39.60;;;;;;4993524;28;20660;-60
2022/12/09 04:20:28;;;;;;;1.20;1.10;;;19.90;39.60;;;;;;4992669;28;20046;-60
2022/12/09 04:22:55;;;;;;;1.52;1.05;;;19.90;39.60;;;;;;4995412;28;20489;-61
2022/12/09 04:25:20;;;;;;;1.45;1.20;;;19.90;39.60;;;;;;4996482;28;20494;-60
2022/12/09 04:27:46;;;;;;;1.45;1.08;;;19.90;39.60;;;;;;4995745;28;20046;-61
2022/12/09 04:30:12;;;;;;;1.30;1.20;;;19.90;39.60;;;;;;4994340;28;20142;-60
2022/12/09 04:32:38;;;;;;;1.50;1.40;;;19.80;39.60;;;;;;4995366;28;20050;-61
2022/12/09 04:35:04;;;;;;;1.50;1.40;;;19.80;39.70;;;;;;4994502;28;20038;-60
2022/12/09 04:37:30;;;;;;;1.75;1.60;;;19.90;39.70;;;;;;4996417;28;20478;-61
2022/12/09 04:39:55;;;;;;;1.30;1.23;;;19.80;39.70;;;;;;4995436;28;20042;-61
2022/12/09 04:42:21;;;;;;;1.52;1.15;;;19.80;39.60;;;;;;4993274;28;20383;-60
2022/12/09 04:44:47;;;;;;;1.42;1.33;;;19.80;39.60;;;;;;4994356;28;20046;-61
2022/12/09 04:47:12;;;;;;;1.70;1.60;;;19.80;39.70;;;;;;4994969;28;20050;-61
2022/12/09 04:49:38;;;;;;;1.50;1.40;;;19.80;39.70;;;;;;4993090;28;20100;-60
2022/12/09 04:52:04;;;;;;;1.60;1.50;;;19.70;39.60;;;;;;4995588;28;20502;-60
2022/12/09 04:54:30;;;;;;;1.40;1.30;;;19.70;39.70;;;;;;4994636;28;20044;-61
2022/12/09 04:56:55;;;;;;;1.63;1.52;;;19.70;39.70;;;;;;4994640;28;20478;-61
2022/12/09 04:59:21;;;;;;;1.40;1.30;;;19.70;39.70;;;;;;4994367;28;20038;-61
2022/12/09 05:01:47;;;;;;;1.60;1.50;;;19.70;39.60;;;;;;4994095;28;20042;-61
2022/12/09 05:04:12;;;;;;;1.70;1.60;;;19.70;39.70;;;;;;4993645;28;20042;-61
2022/12/09 05:06:38;;;;;;;1.65;1.55;;;19.70;39.80;;;;;;4993901;28;20542;-61
2022/12/09 05:09:03;;;;;;;1.80;1.70;;;19.70;39.70;;;;;;4991867;28;20137;-60
2022/12/09 05:11:29;;;;;;;1.70;1.60;;;19.70;39.70;;;;;;4995753;28;20425;-61
2022/12/09 05:13:55;;;;;;;1.70;1.60;;;19.70;39.70;;;;;;4994250;28;20046;-61
2022/12/09 05:16:20;;;;;;;2.55;1.70;;;19.70;40.50;;;;;;4993782;28;20038;-61
2022/12/09 05:18:47;;;;;;;1.60;1.50;;;19.70;39.80;;;;;;4992970;28;20044;-61
2022/12/09 05:21:17;;;;;;;2.35;2.15;;;19.60;39.70;;;;;;4993613;28;20477;-60
2022/12/09 05:23:43;;;;;;;2.20;1.85;;;19.60;39.70;;;;;;4993376;28;20039;-61
2022/12/09 05:26:11;;;;;;;1.73;1.63;;;19.60;39.70;;;;;;4995006;28;20068;-61
2022/12/09 05:28:37;;;;;;;1.70;1.60;;;19.60;39.70;;;;;;4992817;28;20053;-61
2022/12/09 05:31:09;;;;;;;2.00;1.90;;;19.60;39.80;;;;;;4991758;28;20089;-61
2022/12/09 05:33:35;;;;;;;2.15;2.00;;;19.60;39.90;;;;;;4994013;28;20053;-60
2022/12/09 05:36:01;;;;;;;1.90;1.80;;;19.50;39.80;;;;;;4993641;28;20039;-60
2022/12/09 05:38:27;;;;;;;1.80;1.70;;;19.50;39.90;;;;;;4993466;28;20403;-61
2022/12/09 05:40:53;;;;;;;1.73;1.63;;;19.50;39.90;;;;;;4992235;28;20489;-60
2022/12/09 05:43:18;;;;;;;1.80;1.67;;;19.50;39.80;;;;;;4992773;28;20058;-60
2022/12/09 05:45:44;;;;;;;2.20;2.00;;;19.50;39.80;;;;;;4994477;28;20379;-61
2022/12/09 05:48:10;;;;;;;2.10;1.85;;;19.50;39.80;;;;;;4992693;28;20100;-60
2022/12/09 05:50:36;;;;;;;2.00;1.90;;;19.50;39.90;;;;;;4992719;28;20320;-61
2022/12/09 05:53:02;;;;;;;1.90;1.60;;;19.50;39.90;;;;;;4991663;28;20102;-59
2022/12/09 05:55:27;;;;;;;2.00;1.90;;;19.40;39.80;;;;;;4993236;28;20049;-60
2022/12/09 05:57:53;;;;;;;2.42;1.98;;;19.50;39.90;;;;;;4990431;28;20164;-61
2022/12/09 06:00:19;;;;;;;7.97;2.33;;;19.50;39.80;;;;;;4992495;28;20038;-61
2022/12/09 06:02:45;;;;;;;3.78;1.85;;;19.90;39.70;;;;;;4992636;28;20811;-61
2022/12/09 06:05:10;;;;;;;3.90;1.48;;;20.50;39.10;;;;;;4991741;28;20046;-59
2022/12/09 06:07:36;;;;;;;1.85;1.65;;;21.10;38.50;;;;;;4991216;28;20041;-61
2022/12/09 06:10:02;;;;;;;2.00;1.77;;;21.60;37.70;;;;;;4992299;28;20081;-61
2022/12/09 06:12:28;;;;;;;2.58;1.63;;;22.00;37.00;;;;;;4991106;28;20077;-61
2022/12/09 06:14:54;;;;;;;4.05;2.15;;;22.20;36.60;;;;;;4991970;28;20144;-61
2022/12/09 06:17:19;;;;;;;3.15;1.50;;;22.40;36.30;;;;;;4994031;28;20180;-60
2022/12/09 06:19:45;;;;;;;5.00;1.60;;;22.60;36.20;;;;;;4992461;28;20046;-62
2022/12/09 06:22:10;;;;;;;1.85;1.60;;;22.70;36.10;;;;;;4991747;28;20468;-61
2022/12/09 06:24:36;;;;;;;1.42;1.33;;;22.80;36.00;;;;;;4991880;28;20042;-61
2022/12/09 06:27:02;;;;;;;2.28;1.70;;;22.90;36.00;;;;;;4989985;28;20042;-61
2022/12/09 06:29:28;;;;;;;3.67;2.17;;;23.00;36.00;;;;;;4990261;28;20050;-61
2022/12/09 06:31:54;;;;;;;3.10;1.63;;;23.00;36.00;;;;;;4993058;28;20050;-61
2022/12/09 06:34:19;;;;;;;1.95;1.55;;;23.00;36.10;;;;;;4992436;28;20453;-61
2022/12/09 06:36:45;;;;;;;5.97;1.83;;;22.90;36.10;;;;;;4990806;28;20048;-61
2022/12/09 06:39:11;;;;;;;4.85;1.70;;;22.90;36.10;;;;;;4991361;28;20807;-61
2022/12/09 06:41:39;;;;;;;6.32;1.70;;;22.90;36.20;;;;;;4992773;28;20486;-60
2022/12/09 06:44:05;;;;;;;6.70;2.80;;;22.90;36.20;;;;;;4989132;28;20054;-59
2022/12/09 06:46:31;;;;;;;3.58;2.10;;;22.90;36.30;;;;;;4983905;28;20049;-62
2022/12/09 06:48:56;;;;;;;4.05;1.95;;;22.90;36.60;;;;;;4979347;28;20053;-61
2022/12/09 06:51:23;;;;;;;5.20;2.67;;;22.90;36.60;;;;;;4992565;28;20038;-61
2022/12/09 06:53:49;;;;;;;3.83;1.92;;;22.90;36.60;;;;;;4988218;28;20477;-61
2022/12/09 06:56:15;;;;;;;6.85;2.38;;;22.80;36.50;;;;;;4990560;28;20117;-61
2022/12/09 06:58:42;;;;;;;3.38;2.08;;;22.90;36.60;;;;;;4989041;28;20542;-62
2022/12/09 07:01:13;;;;;;;7.60;2.00;;;22.90;36.50;;;;;;4991976;28;20497;-61
2022/12/09 07:03:41;;;;;;;5.57;2.10;;;22.90;36.40;;;;;;4990300;28;20034;-61
2022/12/09 07:06:07;;;;;;;5.43;1.90;;;22.90;36.20;;;;;;4988966;28;20172;-61
2022/12/09 07:08:33;;;;;;;5.03;1.90;;;22.90;36.30;;;;;;4987771;28;20393;-61
2022/12/09 07:10:58;;;;;;;3.88;1.90;;;22.90;36.30;;;;;;4990118;28;20052;-61
2022/12/09 07:13:24;;;;;;;4.20;1.80;;;23.00;36.30;;;;;;4990113;28;20049;-60
2022/12/09 07:15:50;;;;;;;4.68;1.80;;;23.00;36.30;;;;;;4988336;28;20077;-61
2022/12/09 07:18:15;;;;;;;2.33;1.65;;;23.00;36.30;;;;;;4990090;28;20485;-61
2022/12/09 07:20:41;;;;;;;3.80;2.10;;;23.00;36.20;;;;;;4991894;28;20088;-61
2022/12/09 07:23:06;;;;;;;2.35;1.88;;;23.00;36.10;;;;;;4988560;28;20082;-61
2022/12/09 07:25:32;;;;;;;3.38;2.60;;;23.00;36.10;;;;;;4988513;28;20540;-61
2022/12/09 07:27:58;;;;;;;5.55;2.50;;;22.80;36.30;;;;;;4990032;28;20051;-61
2022/12/09 07:30:23;;;;;;;5.30;2.53;;;22.40;36.80;;;;;;4989534;28;20558;-61
2022/12/09 07:32:49;;;;;;;6.40;3.03;;;22.10;37.20;;;;;;4989011;28;20095;-61
2022/12/09 07:35:14;;;;;;;4.43;2.83;;;21.80;37.90;;;;;;4989882;28;20482;-61
2022/12/09 07:37:40;;;;;;;6.68;2.80;;;21.50;38.60;;;;;;4990874;28;20118;-61
2022/12/09 07:40:07;;;;;;;6.07;2.60;;;21.40;39.20;;;;;;4989695;28;20957;-61
2022/12/09 07:42:32;;;;;;;6.25;2.60;;;21.60;39.60;;;;;;4989801;28;20128;-61
2022/12/09 07:44:58;;;;;;;5.00;2.75;;;21.90;39.50;;;;;;4988692;28;20049;-61
2022/12/09 07:47:24;;;;;;;4.40;2.50;;;22.10;39.20;;;;;;4989613;28;20048;-60
2022/12/09 07:49:51;;;;;;;4.18;2.47;;;22.30;39.00;;;;;;4991665;28;20782;-60
2022/12/09 07:52:16;;;;;;;6.03;2.40;;;22.50;38.90;;;;;;4996258;28;20044;-61
2022/12/09 07:54:42;;;;;;;8.07;3.30;;;22.60;38.80;;;;;;4994135;28;20046;-61
2022/12/09 07:57:07;;;;;;;4.57;2.55;;;22.70;38.50;;;;;;4993521;28;20058;-61
2022/12/09 07:59:33;;;;;;;5.13;3.15;;;22.80;38.30;;;;;;4990537;28;20508;-60
2022/12/09 08:01:58;;;;;;;8.10;3.22;;;22.80;38.10;;;;;;4994924;28;20164;-61
2022/12/09 08:04:24;;;;;;;9.25;3.00;;;22.80;38.00;;;;;;4993427;28;20041;-60
2022/12/09 08:06:50;;;;;;;7.60;3.40;;;22.90;38.10;;;;;;4988139;28;20551;-61
2022/12/09 08:09:15;;;;;;;8.27;3.63;;;22.90;38.00;;;;;;4991748;28;20420;-61
2022/12/09 08:11:41;;;;;;;5.97;2.85;;;22.90;38.00;;;;;;4994903;28;20049;-60
2022/12/09 08:14:09;;;;;;;5.18;2.60;;;22.90;37.90;;;;;;4991359;28;20136;-61
2022/12/09 08:16:35;;;;;;;8.25;2.92;;;23.00;37.90;;;;;;4991749;28;20096;-61
2022/12/09 08:19:00;;;;;;;5.65;3.30;;;23.00;37.70;;;;;;4993393;28;20541;-61
2022/12/09 08:21:31;;;;;;;11.55;3.33;;;23.10;37.60;;;;;;4992286;28;20041;-61
2022/12/09 08:23:59;;;;;;;8.90;3.20;;;23.10;37.40;;;;;;4992609;28;20045;-61
2022/12/09 08:26:28;;;;;;;7.57;3.00;;;23.10;37.50;;;;;;4989375;28;20046;-60
2022/12/09 08:28:54;;;;;;;7.32;2.53;;;23.10;37.40;;;;;;4986390;28;20053;-60
2022/12/09 08:31:23;;;;;;;6.95;2.78;;;23.20;37.40;;;;;;4988740;28;20049;-61
2022/12/09 08:33:49;;;;;;;4.07;2.55;;;23.20;37.30;;;;;;4988311;28;20045;-61
2022/12/09 08:36:17;;;;;;;6.82;3.17;;;23.20;37.20;;;;;;4988153;28;20045;-59
2022/12/09 08:38:44;;;;;;;6.38;3.10;;;23.20;37.10;;;;;;4987558;28;20049;-60
2022/12/09 08:41:12;;;;;;;6.95;3.20;;;23.20;37.10;;;;;;4989039;28;20402;-64
2022/12/09 08:43:39;;;;;;;7.38;3.80;;;23.20;37.20;;;;;;4988383;28;20065;-60
2022/12/09 08:46:05;;;;;;;6.85;3.10;;;23.20;37.10;;;;;;4989297;28;20038;-60
2022/12/09 08:48:32;;;;;;;9.75;3.70;;;23.20;37.10;;;;;;4986093;28;20053;-60
2022/12/09 08:50:57;;;;;;;5.50;3.17;;;23.20;37.30;;;;;;4973200;28;20054;-61
2022/12/09 08:53:23;;;;;;;5.88;3.30;;;23.20;37.30;;;;;;4988696;28;20591;-61
2022/12/09 08:55:49;;;;;;;5.93;3.30;;;23.20;37.40;;;;;;4987318;28;20084;-61
2022/12/09 08:58:14;;;;;;;6.03;2.80;;;23.20;37.50;;;;;;4986943;28;20678;-60
2022/12/09 12:29:33;;;;;;;7.53;4.60;;;21.60;40.90;;;;;;5970684;23;3862694;-64
2022/12/09 12:32:01;;;;;;;8.18;4.50;;;22.10;39.80;;;;;;6125157;23;20021;-63
2022/12/09 12:35:20;;;;;;;10.77;4.05;;;22.60;39.70;;;;;;6123142;23;20069;-64
2022/12/09 12:38:00;;;;;;;10.95;4.63;;;22.80;37.90;;;;;;6004008;23;20016;-65
2022/12/09 12:40:31;;;;;;;6.60;4.57;;;22.90;37.60;;;;;;6152245;23;20017;-65
2022/12/09 12:46:21;;;;;;;7.65;4.13;;;23.10;36.30;;;;;;6151750;23;19916;-65
2022/12/09 12:48:46;;;;;;;12.43;4.25;;;23.20;36.40;;;;;;6126220;23;20068;-64
2022/12/09 12:51:28;;;;;;;8.35;4.30;;;23.20;36.40;;;;;;6153167;23;20791;-67
2022/12/09 12:54:14;;;;;;;11.48;4.22;;;23.20;35.90;;;;;;6152268;23;20543;-67
2022/12/09 12:56:57;;;;;;;7.38;3.67;;;23.20;36.20;;;;;;6151783;23;20009;-66
2022/12/09 13:00:06;;;;;;;5.90;3.88;;;23.10;36.00;;;;;;6151019;23;20013;-66
2022/12/09 13:02:47;;;;;;;5.78;3.45;;;23.10;36.00;;;;;;6151163;23;20032;-65
2022/12/09 13:05:35;;;;;;;10.23;3.15;;;23.10;36.30;;;;;;6124409;23;20079;-66
2022/12/09 13:08:04;;;;;;;8.27;3.30;;;23.10;36.50;;;;;;6150525;23;20017;-66
2022/12/09 13:10:49;;;;;;;11.88;3.50;;;23.10;36.80;;;;;;6123834;23;20032;-65
2022/12/09 13:13:25;;;;;;;6.53;3.33;;;23.10;36.80;;;;;;6147733;23;20219;-66
2022/12/09 13:15:54;;;;;;;8.55;3.25;;;23.10;37.00;;;;;;6123050;23;20048;-65
2022/12/09 13:18:28;;;;;;;10.25;3.55;;;23.10;37.10;;;;;;6123336;23;20009;-67
2022/12/09 13:21:00;;;;;;;6.07;3.38;;;23.10;37.00;;;;;;6149057;23;20049;-66
2022/12/09 13:23:50;;;;;;;4.85;2.80;;;23.10;36.90;;;;;;6096794;23;20555;-66
2022/12/09 13:26:53;;;;;;;9.10;3.25;;;23.10;37.00;;;;;;6144670;23;20100;-66
2022/12/09 13:29:22;;;;;;;6.15;3.60;;;23.00;36.90;;;;;;6112964;23;20025;-66
2022/12/09 13:32:12;;;;;;;10.63;3.10;;;23.00;37.20;;;;;;6114974;23;20450;-65
2022/12/09 13:34:41;;;;;;;9.48;3.70;;;23.00;37.00;;;;;;6088902;23;20625;-66
2022/12/09 13:37:36;;;;;;;7.75;3.58;;;22.90;37.00;;;;;;6115343;23;20014;-66
2022/12/09 13:40:24;;;;;;;10.63;3.20;;;22.90;36.70;;;;;;6115253;23;20017;-65
2022/12/09 13:43:00;;;;;;;8.90;3.03;;;22.90;36.90;;;;;;6114531;23;20045;-66
2022/12/09 13:45:27;;;;;;;6.03;3.30;;;23.00;36.60;;;;;;6114540;23;20358;-64
2022/12/09 13:48:00;;;;;;;4.97;2.80;;;23.00;36.50;;;;;;6115381;23;20021;-64
2022/12/09 13:50:39;;;;;;;5.32;2.92;;;23.00;36.40;;;;;;6115308;23;20029;-65
2022/12/09 13:53:20;;;;;;;5.88;2.70;;;23.00;36.70;;;;;;6114451;23;20125;-66
2022/12/09 13:56:05;;;;;;;7.07;2.88;;;23.00;37.10;;;;;;6115011;23;20446;-65
2022/12/09 13:59:22;;;;;;;4.72;2.50;;;23.00;37.30;;;;;;6115657;23;20461;-65
2022/12/09 14:01:55;;;;;;;6.82;2.65;;;22.90;37.40;;;;;;6035406;23;20018;-65
2022/12/09 14:04:28;;;;;;;5.45;2.75;;;22.90;37.60;;;;;;6114435;23;20010;-65
2022/12/09 14:07:13;;;;;;;7.32;3.20;;;22.90;37.70;;;;;;6115263;23;20061;-62
2022/12/09 14:09:45;;;;;;;8.20;3.40;;;22.90;37.80;;;;;;6114285;23;20014;-64
2022/12/09 14:12:14;;;;;;;7.07;2.92;;;22.90;37.80;;;;;;6115491;23;20018;-65
2022/12/09 14:14:42;;;;;;;5.35;2.70;;;23.00;37.90;;;;;;6085975;23;20025;-63
2022/12/09 14:17:23;;;;;;;7.05;2.67;;;23.00;38.10;;;;;;6114909;23;20452;-63
2022/12/09 14:19:59;;;;;;;4.63;2.70;;;23.00;38.20;;;;;;6115410;23;20025;-65
2022/12/09 14:22:25;;;;;;;5.57;2.53;;;23.00;38.20;;;;;;6089197;23;20373;-65
2022/12/09 14:24:55;;;;;;;9.68;2.55;;;22.90;38.20;;;;;;6088519;23;20028;-65
2022/12/09 14:27:27;;;;;;;6.35;2.58;;;23.00;38.20;;;;;;6114852;23;20385;-64
2022/12/09 14:29:56;;;;;;;7.13;2.83;;;23.00;38.30;;;;;;6088369;23;20022;-65
2022/12/09 14:32:33;;;;;;;10.32;3.28;;;22.90;38.30;;;;;;6114130;23;20605;-64
2022/12/09 14:35:08;;;;;;;4.60;2.53;;;23.00;38.10;;;;;;6114227;23;20018;-63
2022/12/09 14:37:54;;;;;;;3.90;2.30;;;23.00;38.20;;;;;;6115990;23;20052;-65
2022/12/09 14:40:33;;;;;;;4.97;2.50;;;23.00;38.20;;;;;;6090009;23;20691;-65
2022/12/09 14:43:01;;;;;;;7.00;2.60;;;23.00;38.00;;;;;;6114049;23;20013;-64
2022/12/09 14:45:43;;;;;;;4.05;2.60;;;23.00;38.10;;;;;;6065112;23;20030;-64
2022/12/09 14:48:15;;;;;;;8.68;2.50;;;23.00;38.20;;;;;;6114805;23;20096;-64
2022/12/09 14:50:40;;;;;;;6.13;2.50;;;23.00;38.70;;;;;;6115496;23;20092;-64
2022/12/09 14:53:21;;;;;;;6.32;2.53;;;23.00;39.10;;;;;;6114220;23;20021;-65
2022/12/09 14:55:47;;;;;;;;;;;23.00;39.40;;;;;;6115467;23;20013;-64
2022/12/09 14:58:19;;;;;;;4.00;2.72;;;23.00;39.40;;;;;;6089256;23;19936;-64
2022/12/09 15:00:45;;;;;;;4.18;2.55;;;23.00;39.40;;;;;;6115142;23;20362;-63
2022/12/09 15:03:20;;;;;;;7.63;2.85;;;23.00;39.50;;;;;;6114723;23;20017;-64
2022/12/09 15:06:04;;;;;;;4.95;2.80;;;23.00;39.50;;;;;;6089556;23;20099;-65
2022/12/09 15:08:34;;;;;;;9.15;3.17;;;23.00;39.30;;;;;;6088962;23;20022;-65
2022/12/09 15:11:24;;;;;;;7.80;2.78;;;22.90;39.10;;;;;;6114393;23;20060;-64
2022/12/09 15:13:52;;;;;;;5.38;2.35;;;22.90;39.00;;;;;;6113483;23;20018;-64
2022/12/09 15:16:22;;;;;;;7.00;2.50;;;23.00;38.90;;;;;;6114390;23;20045;-61
2022/12/09 15:18:50;;;;;;;4.30;2.15;;;23.00;38.80;;;;;;6115185;23;20559;-65
2022/12/09 15:21:29;;;;;;;6.43;2.88;;;22.90;38.90;;;;;;6114125;23;20014;-64
2022/12/09 15:23:56;;;;;;;7.88;3.10;;;22.90;38.90;;;;;;6104367;23;20025;-66
2022/12/09 15:26:31;;;;;;;6.70;3.28;;;22.90;39.10;;;;;;6083676;23;20073;-70
2022/12/09 15:28:58;;;;;;;10.40;3.40;;;22.90;39.30;;;;;;6060647;23;20022;-63
2022/12/09 15:31:31;;;;;;;8.07;3.00;;;22.90;39.30;;;;;;6109607;23;20061;-64
2022/12/09 15:33:59;;;;;;;8.23;2.90;;;22.90;39.20;;;;;;6109021;23;20025;-63
2022/12/09 15:36:37;;;;;;;6.15;2.65;;;22.90;39.20;;;;;;6111046;23;20422;-63
2022/12/09 15:39:10;;;;;;;5.53;2.70;;;22.90;39.20;;;;;;6084884;23;20018;-63
2022/12/09 15:44:31;;;;;;;6.90;2.88;;;22.90;39.20;;;;;;6109746;23;20029;-63
2022/12/09 15:46:57;;;;;;;6.47;2.80;;;22.90;39.20;;;;;;6110663;23;20022;-63
2022/12/09 15:49:36;;;;;;;7.90;2.67;;;22.90;39.20;;;;;;6110108;23;20018;-63
2022/12/09 15:52:04;;;;;;;5.90;2.50;;;23.00;39.10;;;;;;6112116;23;20022;-63
2022/12/09 15:54:34;;;;;;;8.27;3.10;;;23.00;39.10;;;;;;6111552;23;20028;-63
2022/12/09 15:57:02;;;;;;;4.32;2.50;;;23.00;39.00;;;;;;6111764;23;20010;-62
2022/12/09 15:59:32;;;;;;;10.77;3.03;;;23.00;39.00;;;;;;6111725;23;20025;-63
2022/12/09 16:01:59;;;;;;;5.78;2.60;;;23.00;39.00;;;;;;6112315;23;20014;-63
2022/12/09 16:04:28;;;;;;;7.53;3.00;;;23.00;39.00;;;;;;6111222;23;20074;-63
2022/12/09 16:06:55;;;;;;;4.82;2.47;;;23.00;39.00;;;;;;6110868;23;20092;-64
2022/12/09 16:09:22;;;;;;;4.60;2.40;;;23.00;39.00;;;;;;6110998;23;20079;-63
2022/12/09 16:11:50;;;;;;;5.38;2.40;;;23.10;39.00;;;;;;6060016;23;20018;-63
2022/12/09 16:14:17;;;;;;;4.70;2.50;;;23.10;38.90;;;;;;6110565;23;20428;-62
2022/12/09 16:17:00;;;;;;;5.82;2.40;;;23.10;38.90;;;;;;6084618;23;20025;-63
2022/12/09 16:19:34;;;;;;;5.10;2.20;;;23.10;38.90;;;;;;6109970;23;20338;-63
2022/12/09 16:22:29;;;;;;;3.95;2.38;;;23.10;38.90;;;;;;6112158;23;20049;-64
2022/12/09 16:25:19;;;;;;;9.90;2.78;;;23.10;38.80;;;;;;6083455;23;20018;-63
2022/12/09 16:27:48;;;;;;;5.63;2.35;;;23.10;38.80;;;;;;6110144;23;20021;-63
2022/12/09 16:30:20;;;;;;;4.22;2.33;;;23.10;38.80;;;;;;6111657;23;20017;-63
2022/12/09 16:32:50;;;;;;;5.93;2.00;;;23.10;38.80;;;;;;6112956;23;20524;-63
2022/12/09 16:35:16;;;;;;;5.15;2.80;;;23.10;38.80;;;;;;6109521;23;20010;-63
2022/12/09 16:38:10;;;;;;;5.63;2.60;;;23.10;38.90;;;;;;6110618;23;20100;-62